CARO2: North Fork Red, OK

Data processed at Thu May 23 2019 23:50


All information presented herein is the property of the government of the United States of America and may be revised or deleted at any time without prior notice.
Dissemination of this information without the expressed written consent of the Public Affairs Office, Tulsa District U.S. Army Corps of Engineers is strictly prohibited.
These data are gathered electronically and, as presented, have not undergone any form of quality control. These data are not guaranteed to be valid or correct.
Go to home page.
Go to station list.
Go to home page.

Upstream stations:

Downstream station:
Previous Day
Next Day
Current Day
    
SHEF ID:       CARO2     North Fork Red River near Carter
STATION TYPE:  
Regulating: Stage =    11.00, Flow =     1411

               PRECIP     STAGE  STAGE(2)  RIV-FLOW  BAT-LOAD
                   in        ft        ft       cfs      volt
              Ccp-Rev   Ccp-Rev   Ccp-Rev   Ccp-Rev   Ccp-Rev
(US/Central)
05/23 00:00      0.00     10.37     10.43      1134     12.65
05/23 01:00      0.00     10.25     10.32      1085     12.65
05/23 02:00      0.00     10.14     10.22      1041     12.65
05/23 03:00      0.00      9.98     10.07       978     12.65
05/23 04:00      0.00      9.93     10.01       959     12.57
05/23 05:00      0.00      9.88      9.91       940     12.57
05/23 06:00      0.00      9.75      9.78       892     12.57
05/23 07:00      0.00      9.67      9.71       863     12.57
05/23 08:00      0.00      9.63      9.66       849     12.57
05/23 09:00      0.00      9.56      9.58       824     12.97
05/23 10:00      0.00      9.50      9.54       803     13.21
05/23 11:00      0.00      9.43      9.47       779     13.37
05/23 12:00      0.00      9.37      9.43       758     13.21
05/23 13:00      0.00      9.34      9.37       748     13.05
05/23 14:00      0.00      9.29      9.30       732     13.05
05/23 15:00      0.00      9.21      9.22       706     13.29
05/23 16:00      0.00      9.15      9.19       686     13.29
05/23 17:00      0.00      9.15      9.20       686     13.21
05/23 18:00      0.00      9.11      9.17       674     12.97
05/23 19:00      0.00      9.10      9.17       670     12.89
05/23 20:00      0.00      9.05      9.08       655     12.73
05/23 21:00      0.00      9.00      9.05       639     12.65
05/23 22:00      0.00      8.99      9.02       636     12.65
05/23 23:00      0.00      8.97      9.00       630     12.65